AUI3SF UKWW-UKOO
Flight info
| Callsign | AUI3SF |
|---|---|
| Flight time | 0h 40m |
| Altitude | 29000 |
| Route | NIROV P156 ODSAN |
| Aircraft | B738/M-SDE2E3FGHIRWXY/LB1 |
Departure
| Time | 2026-04-20 12:33 |
|---|---|
| Airport | Vinnytsia/Gavyryshivka International Airport (UKWW) |
Arrival
| Time | 2026-04-20 13:13 |
|---|---|
| Airport | Odesa International Airport (UKOO) |
| Time | Latitude | Longitude | Altitude | Speed | Heading |
|---|---|---|---|---|---|
| 2026-04-20 12:06 | 49.24291 | 28.60614 | 971 ft | 0 kts | 317° |
| 2026-04-20 12:28 | 49.24292 | 28.60613 | 974 ft | 1 kts | 317° |
| 2026-04-20 12:28 | 49.24306 | 28.60596 | 984 ft | 3 kts | 333° |
| 2026-04-20 12:28 | 49.24325 | 28.60608 | 972 ft | 4 kts | 50° |
| 2026-04-20 12:28 | 49.24326 | 28.60654 | 972 ft | 6 kts | 79° |
| 2026-04-20 12:29 | 49.24348 | 28.60720 | 981 ft | 8 kts | 76° |
| 2026-04-20 12:29 | 49.24347 | 28.60788 | 979 ft | 7 kts | 77° |
| 2026-04-20 12:29 | 49.24383 | 28.60864 | 966 ft | 10 kts | 49° |
| 2026-04-20 12:29 | 49.24438 | 28.60956 | 968 ft | 13 kts | 47° |
| 2026-04-20 12:30 | 49.24504 | 28.61018 | 969 ft | 10 kts | 355° |
| 2026-04-20 12:30 | 49.24570 | 28.60947 | 969 ft | 15 kts | 318° |
| 2026-04-20 12:30 | 49.24662 | 28.60820 | 970 ft | 20 kts | 318° |
| 2026-04-20 12:30 | 49.24781 | 28.60659 | 969 ft | 23 kts | 319° |
| 2026-04-20 12:31 | 49.24911 | 28.60484 | 980 ft | 27 kts | 319° |
| 2026-04-20 12:31 | 49.25030 | 28.60329 | 977 ft | 16 kts | 326° |
| 2026-04-20 12:31 | 49.25079 | 28.60261 | 969 ft | 4 kts | 283° |
| 2026-04-20 12:31 | 49.25056 | 28.60236 | 967 ft | 5 kts | 169° |
| 2026-04-20 12:32 | 49.25044 | 28.60266 | 966 ft | 6 kts | 107° |
| 2026-04-20 12:32 | 49.25018 | 28.60336 | 972 ft | 9 kts | 133° |
| 2026-04-20 12:32 | 49.25006 | 28.60353 | 981 ft | 1 kts | 137° |
| 2026-04-20 12:32 | 49.24988 | 28.60377 | 974 ft | 18 kts | 137° |
| 2026-04-20 12:33 | 49.24666 | 28.60818 | 969 ft | 105 kts | 138° |
| 2026-04-20 12:33 | 49.23928 | 28.61816 | 1013 ft | 173 kts | 136° |
| 2026-04-20 12:33 | 49.23029 | 28.62975 | 2265 ft | 161 kts | 136° |
| 2026-04-20 12:33 | 49.22120 | 28.64137 | 3148 ft | 183 kts | 140° |
| 2026-04-20 12:34 | 49.20840 | 28.64789 | 3470 ft | 218 kts | 178° |
| 2026-04-20 12:34 | 49.19247 | 28.64721 | 3674 ft | 241 kts | 163° |
| 2026-04-20 12:34 | 49.17749 | 28.65928 | 4266 ft | 248 kts | 143° |
| 2026-04-20 12:34 | 49.16312 | 28.67404 | 5229 ft | 249 kts | 145° |
| 2026-04-20 12:35 | 49.14831 | 28.68852 | 6102 ft | 257 kts | 148° |
| 2026-04-20 12:35 | 49.13290 | 28.70300 | 6969 ft | 262 kts | 150° |
| 2026-04-20 12:35 | 49.11714 | 28.71742 | 7805 ft | 268 kts | 150° |
| 2026-04-20 12:35 | 49.10077 | 28.73208 | 8503 ft | 278 kts | 151° |
| 2026-04-20 12:36 | 49.08389 | 28.74702 | 9279 ft | 284 kts | 151° |
| 2026-04-20 12:36 | 49.06650 | 28.76228 | 10007 ft | 291 kts | 152° |
| 2026-04-20 12:36 | 49.04857 | 28.77791 | 10476 ft | 308 kts | 152° |
| 2026-04-20 12:36 | 49.02914 | 28.79478 | 10685 ft | 334 kts | 152° |
| 2026-04-20 12:37 | 49.00842 | 28.81275 | 11193 ft | 348 kts | 152° |
| 2026-04-20 12:37 | 48.98724 | 28.83108 | 11959 ft | 353 kts | 152° |
| 2026-04-20 12:37 | 48.96575 | 28.84967 | 12766 ft | 357 kts | 152° |
| 2026-04-20 12:37 | 48.94419 | 28.86919 | 13518 ft | 364 kts | 151° |
| 2026-04-20 12:38 | 48.92247 | 28.88972 | 14195 ft | 371 kts | 150° |
| 2026-04-20 12:38 | 48.90048 | 28.91077 | 14879 ft | 376 kts | 150° |
| 2026-04-20 12:38 | 48.87822 | 28.93209 | 15566 ft | 381 kts | 150° |
| 2026-04-20 12:38 | 48.85563 | 28.95365 | 16228 ft | 386 kts | 151° |
| 2026-04-20 12:39 | 48.80949 | 28.99742 | 17547 ft | 396 kts | 152° |
| 2026-04-20 12:39 | 48.78587 | 29.01972 | 18212 ft | 402 kts | 152° |
| 2026-04-20 12:39 | 48.76208 | 29.04213 | 18799 ft | 406 kts | 152° |
| 2026-04-20 12:40 | 48.73796 | 29.06482 | 19417 ft | 409 kts | 152° |
| 2026-04-20 12:40 | 48.71372 | 29.08759 | 20037 ft | 412 kts | 152° |
| 2026-04-20 12:40 | 48.68963 | 29.11020 | 20633 ft | 415 kts | 152° |
| 2026-04-20 12:40 | 48.66468 | 29.13358 | 21239 ft | 417 kts | 153° |
| 2026-04-20 12:41 | 48.63988 | 29.15679 | 21744 ft | 421 kts | 153° |
| 2026-04-20 12:41 | 48.61487 | 29.18017 | 22204 ft | 424 kts | 153° |
| 2026-04-20 12:41 | 48.58999 | 29.20339 | 22660 ft | 428 kts | 153° |
| 2026-04-20 12:41 | 48.56458 | 29.22709 | 23149 ft | 431 kts | 153° |
| 2026-04-20 12:42 | 48.53900 | 29.25093 | 23609 ft | 433 kts | 153° |
| 2026-04-20 12:42 | 48.51321 | 29.27492 | 23992 ft | 436 kts | 153° |
| 2026-04-20 12:42 | 48.48729 | 29.29902 | 24359 ft | 439 kts | 153° |
| 2026-04-20 12:42 | 48.46119 | 29.32325 | 24721 ft | 441 kts | 153° |
| 2026-04-20 12:43 | 48.43501 | 29.34752 | 25072 ft | 444 kts | 153° |
| 2026-04-20 12:43 | 48.40855 | 29.37202 | 25420 ft | 447 kts | 153° |
| 2026-04-20 12:43 | 48.38196 | 29.39661 | 25765 ft | 449 kts | 153° |
| 2026-04-20 12:43 | 48.35525 | 29.42129 | 26099 ft | 452 kts | 153° |
| 2026-04-20 12:44 | 48.32869 | 29.44579 | 26423 ft | 455 kts | 153° |
| 2026-04-20 12:44 | 48.30165 | 29.47071 | 26760 ft | 457 kts | 153° |
| 2026-04-20 12:44 | 48.27446 | 29.49572 | 27063 ft | 460 kts | 153° |
| 2026-04-20 12:44 | 48.24711 | 29.52086 | 27364 ft | 463 kts | 153° |
| 2026-04-20 12:45 | 48.21956 | 29.54615 | 27663 ft | 465 kts | 153° |
| 2026-04-20 12:45 | 48.19184 | 29.57157 | 27946 ft | 468 kts | 153° |
| 2026-04-20 12:45 | 48.16394 | 29.59712 | 28225 ft | 471 kts | 154° |
| 2026-04-20 12:45 | 48.13586 | 29.62281 | 28514 ft | 473 kts | 154° |
| 2026-04-20 12:46 | 48.10769 | 29.64856 | 28782 ft | 476 kts | 154° |
| 2026-04-20 12:46 | 48.07935 | 29.67442 | 29126 ft | 477 kts | 154° |
| 2026-04-20 12:46 | 48.05102 | 29.70005 | 29547 ft | 475 kts | 155° |
| 2026-04-20 12:46 | 48.02274 | 29.72430 | 30006 ft | 474 kts | 156° |
| 2026-04-20 12:47 | 47.99398 | 29.74811 | 30432 ft | 472 kts | 156° |
| 2026-04-20 12:47 | 47.96483 | 29.77195 | 30857 ft | 471 kts | 156° |
| 2026-04-20 12:47 | 47.93630 | 29.79525 | 30909 ft | 474 kts | 156° |
| 2026-04-20 12:48 | 47.87877 | 29.84257 | 30912 ft | 471 kts | 156° |
| 2026-04-20 12:48 | 47.82168 | 29.88978 | 30916 ft | 470 kts | 156° |
| 2026-04-20 12:49 | 47.76452 | 29.93703 | 30926 ft | 469 kts | 156° |
| 2026-04-20 12:49 | 47.70740 | 29.98411 | 30916 ft | 469 kts | 156° |
| 2026-04-20 12:49 | 47.67894 | 30.00752 | 30806 ft | 470 kts | 156° |
| 2026-04-20 12:50 | 47.65029 | 30.03106 | 30396 ft | 468 kts | 156° |
| 2026-04-20 12:50 | 47.62194 | 30.05436 | 29910 ft | 462 kts | 157° |
| 2026-04-20 12:50 | 47.59434 | 30.07700 | 29403 ft | 457 kts | 157° |
| 2026-04-20 12:50 | 47.56669 | 30.09966 | 28912 ft | 452 kts | 157° |
| 2026-04-20 12:51 | 47.53931 | 30.12207 | 28433 ft | 446 kts | 157° |
| 2026-04-20 12:51 | 47.51227 | 30.14414 | 27959 ft | 442 kts | 157° |
| 2026-04-20 12:51 | 47.48546 | 30.16600 | 27459 ft | 438 kts | 157° |
| 2026-04-20 12:51 | 47.45891 | 30.18761 | 26991 ft | 434 kts | 157° |
| 2026-04-20 12:52 | 47.43254 | 30.20905 | 26505 ft | 430 kts | 157° |
| 2026-04-20 12:52 | 47.40630 | 30.23036 | 26049 ft | 428 kts | 157° |
| 2026-04-20 12:52 | 47.38054 | 30.25126 | 25596 ft | 426 kts | 157° |
| 2026-04-20 12:52 | 47.35459 | 30.27228 | 25120 ft | 424 kts | 157° |
| 2026-04-20 12:53 | 47.32873 | 30.29322 | 24675 ft | 424 kts | 157° |
| 2026-04-20 12:53 | 47.30289 | 30.31410 | 24194 ft | 424 kts | 156° |
| 2026-04-20 12:53 | 47.27709 | 30.33496 | 23733 ft | 421 kts | 156° |
| 2026-04-20 12:53 | 47.25143 | 30.35569 | 23227 ft | 419 kts | 156° |
| 2026-04-20 12:54 | 47.22595 | 30.37625 | 22704 ft | 416 kts | 156° |
| 2026-04-20 12:54 | 47.20066 | 30.39663 | 22223 ft | 412 kts | 156° |
| 2026-04-20 12:54 | 47.17561 | 30.41675 | 21787 ft | 408 kts | 158° |
| 2026-04-20 12:54 | 47.14958 | 30.43101 | 21315 ft | 392 kts | 176° |
| 2026-04-20 12:55 | 47.12289 | 30.43428 | 20899 ft | 381 kts | 184° |
| 2026-04-20 12:55 | 47.09651 | 30.43516 | 20443 ft | 378 kts | 185° |
| 2026-04-20 12:55 | 47.07027 | 30.43563 | 19997 ft | 375 kts | 185° |
| 2026-04-20 12:55 | 47.04424 | 30.43610 | 19562 ft | 373 kts | 185° |
| 2026-04-20 12:56 | 47.01841 | 30.43671 | 19122 ft | 370 kts | 184° |
| 2026-04-20 12:56 | 46.99267 | 30.43744 | 18700 ft | 368 kts | 184° |
| 2026-04-20 12:56 | 46.96710 | 30.43826 | 18286 ft | 367 kts | 184° |
| 2026-04-20 12:56 | 46.94163 | 30.43913 | 17803 ft | 365 kts | 184° |
| 2026-04-20 12:57 | 46.91630 | 30.44004 | 17336 ft | 364 kts | 184° |
| 2026-04-20 12:57 | 46.89111 | 30.44096 | 16898 ft | 361 kts | 184° |
| 2026-04-20 12:57 | 46.86632 | 30.44187 | 16466 ft | 359 kts | 184° |
| 2026-04-20 12:57 | 46.84149 | 30.44278 | 16062 ft | 355 kts | 184° |
| 2026-04-20 12:58 | 46.81685 | 30.44369 | 15643 ft | 353 kts | 184° |
| 2026-04-20 12:58 | 46.79238 | 30.44459 | 15217 ft | 351 kts | 184° |
| 2026-04-20 12:58 | 46.76798 | 30.44548 | 14796 ft | 349 kts | 184° |
| 2026-04-20 12:58 | 46.74381 | 30.44635 | 14382 ft | 347 kts | 184° |
| 2026-04-20 12:59 | 46.71965 | 30.44723 | 13979 ft | 345 kts | 184° |
| 2026-04-20 12:59 | 46.69570 | 30.44810 | 13543 ft | 344 kts | 183° |
| 2026-04-20 12:59 | 46.67176 | 30.44897 | 13084 ft | 342 kts | 183° |
| 2026-04-20 12:59 | 46.64806 | 30.44983 | 12647 ft | 339 kts | 183° |
| 2026-04-20 13:00 | 46.62448 | 30.45069 | 12222 ft | 337 kts | 183° |
| 2026-04-20 13:00 | 46.60115 | 30.45154 | 11814 ft | 334 kts | 183° |
| 2026-04-20 13:00 | 46.57799 | 30.45238 | 11409 ft | 332 kts | 183° |
| 2026-04-20 13:00 | 46.55497 | 30.45321 | 11007 ft | 330 kts | 183° |
| 2026-04-20 13:01 | 46.53209 | 30.45503 | 10598 ft | 331 kts | 175° |
| 2026-04-20 13:01 | 46.51012 | 30.46330 | 10408 ft | 326 kts | 167° |
| 2026-04-20 13:01 | 46.48843 | 30.47322 | 10245 ft | 318 kts | 167° |
| 2026-04-20 13:01 | 46.46796 | 30.48269 | 10109 ft | 309 kts | 167° |
| 2026-04-20 13:02 | 46.44776 | 30.49191 | 9981 ft | 300 kts | 168° |
| 2026-04-20 13:02 | 46.42801 | 30.50079 | 9887 ft | 291 kts | 168° |
| 2026-04-20 13:02 | 46.40906 | 30.50921 | 9825 ft | 281 kts | 168° |
| 2026-04-20 13:02 | 46.38994 | 30.51758 | 9312 ft | 288 kts | 168° |
| 2026-04-20 13:03 | 46.37074 | 30.52596 | 8975 ft | 288 kts | 168° |
| 2026-04-20 13:03 | 46.35153 | 30.53432 | 8650 ft | 288 kts | 168° |
| 2026-04-20 13:03 | 46.33242 | 30.54264 | 8344 ft | 287 kts | 168° |
| 2026-04-20 13:03 | 46.31332 | 30.55095 | 8051 ft | 286 kts | 168° |
| 2026-04-20 13:04 | 46.29434 | 30.55920 | 7742 ft | 285 kts | 168° |
| 2026-04-20 13:04 | 46.27541 | 30.56741 | 7446 ft | 283 kts | 168° |
| 2026-04-20 13:04 | 46.25674 | 30.57553 | 7312 ft | 276 kts | 168° |
| 2026-04-20 13:04 | 46.23856 | 30.58343 | 7184 ft | 269 kts | 168° |
| 2026-04-20 13:05 | 46.22093 | 30.59107 | 7072 ft | 261 kts | 168° |
| 2026-04-20 13:05 | 46.20364 | 30.59854 | 6845 ft | 260 kts | 168° |
| 2026-04-20 13:05 | 46.18638 | 30.60598 | 6623 ft | 256 kts | 168° |
| 2026-04-20 13:05 | 46.16955 | 30.61324 | 6349 ft | 249 kts | 168° |
| 2026-04-20 13:06 | 46.15317 | 30.62031 | 6092 ft | 244 kts | 168° |
| 2026-04-20 13:06 | 46.13696 | 30.62729 | 5838 ft | 243 kts | 168° |
| 2026-04-20 13:06 | 46.12179 | 30.63821 | 5555 ft | 252 kts | 142° |
| 2026-04-20 13:06 | 46.11195 | 30.65944 | 5308 ft | 262 kts | 112° |
| 2026-04-20 13:07 | 46.11098 | 30.68579 | 5060 ft | 269 kts | 82° |
| 2026-04-20 13:07 | 46.11598 | 30.71182 | 4808 ft | 270 kts | 76° |
| 2026-04-20 13:07 | 46.12158 | 30.73778 | 4507 ft | 272 kts | 75° |
| 2026-04-20 13:07 | 46.12936 | 30.76267 | 4197 ft | 276 kts | 53° |
| 2026-04-20 13:08 | 46.14407 | 30.78003 | 3931 ft | 274 kts | 23° |
| 2026-04-20 13:08 | 46.16219 | 30.78538 | 3660 ft | 268 kts | 354° |
| 2026-04-20 13:08 | 46.18042 | 30.78017 | 3420 ft | 263 kts | 339° |
| 2026-04-20 13:08 | 46.19772 | 30.77238 | 3276 ft | 257 kts | 338° |
| 2026-04-20 13:09 | 46.21461 | 30.76476 | 3129 ft | 252 kts | 338° |
| 2026-04-20 13:09 | 46.23104 | 30.75753 | 2888 ft | 247 kts | 338° |
| 2026-04-20 13:09 | 46.24731 | 30.75050 | 2612 ft | 242 kts | 339° |
| 2026-04-20 13:09 | 46.26321 | 30.74366 | 2368 ft | 234 kts | 338° |
| 2026-04-20 13:10 | 46.27852 | 30.73707 | 2142 ft | 224 kts | 338° |
| 2026-04-20 13:10 | 46.29311 | 30.73078 | 1975 ft | 212 kts | 338° |
| 2026-04-20 13:10 | 46.30673 | 30.72491 | 1932 ft | 195 kts | 337° |
| 2026-04-20 13:10 | 46.31926 | 30.71950 | 1937 ft | 179 kts | 337° |
| 2026-04-20 13:11 | 46.33065 | 30.71458 | 1885 ft | 165 kts | 336° |
| 2026-04-20 13:11 | 46.34156 | 30.70984 | 1663 ft | 162 kts | 338° |
| 2026-04-20 13:11 | 46.35245 | 30.70513 | 1463 ft | 164 kts | 338° |
| 2026-04-20 13:11 | 46.36351 | 30.70034 | 1206 ft | 166 kts | 339° |
| 2026-04-20 13:12 | 46.37430 | 30.69597 | 1058 ft | 156 kts | 340° |
| 2026-04-20 13:12 | 46.38463 | 30.69148 | 883 ft | 157 kts | 340° |
| 2026-04-20 13:12 | 46.39535 | 30.68671 | 637 ft | 163 kts | 342° |
| 2026-04-20 13:12 | 46.40599 | 30.68211 | 425 ft | 161 kts | 344° |
| 2026-04-20 13:13 | 46.41672 | 30.67746 | 186 ft | 152 kts | 343° |
| 2026-04-20 13:13 | 46.42585 | 30.67352 | 172 ft | 121 kts | 343° |
| 2026-04-20 13:13 | 46.43269 | 30.67056 | 172 ft | 69 kts | 343° |
| 2026-04-20 13:13 | 46.43601 | 30.66913 | 174 ft | 47 kts | 343° |
| 2026-04-20 13:14 | 46.43862 | 30.66802 | 171 ft | 16 kts | 351° |
| 2026-04-20 13:14 | 46.43908 | 30.66847 | 172 ft | 8 kts | 61° |
| 2026-04-20 13:14 | 46.43923 | 30.66924 | 170 ft | 8 kts | 76° |
| 2026-04-20 13:14 | 46.43939 | 30.67010 | 172 ft | 10 kts | 74° |
| 2026-04-20 13:15 | 46.43959 | 30.67106 | 172 ft | 5 kts | 73° |
| 2026-04-20 13:15 | 46.43967 | 30.67145 | 172 ft | 0 kts | 73° |
| 2026-04-20 13:15 | 46.43967 | 30.67146 | 172 ft | 0 kts | 73° |
| 2026-04-20 13:15 | 46.43973 | 30.67174 | 175 ft | 6 kts | 73° |
| 2026-04-20 13:16 | 46.43990 | 30.67257 | 172 ft | 11 kts | 74° |
| 2026-04-20 13:16 | 46.44021 | 30.67318 | 172 ft | 7 kts | 18° |
| 2026-04-20 13:16 | 46.44090 | 30.67306 | 172 ft | 13 kts | 349° |
| 2026-04-20 13:16 | 46.44135 | 30.67302 | 172 ft | 5 kts | 22° |
| 2026-04-20 13:17 | 46.44144 | 30.67328 | 172 ft | 4 kts | 82° |
| 2026-04-20 13:17 | 46.44149 | 30.67373 | 172 ft | 3 kts | 80° |
| 2026-04-20 13:17 | 46.44151 | 30.67387 | 172 ft | 0 kts | 79° |